sensor_id;sensor_type;location;lat;lon;timestamp;temperature;humidity
37322;DHT22;23697;48.684;9.032;2023-07-13T00:01:39;19.30;63.40
37322;DHT22;23697;48.684;9.032;2023-07-13T00:04:08;19.20;62.70
37322;DHT22;23697;48.684;9.032;2023-07-13T00:06:35;19.10;62.90
37322;DHT22;23697;48.684;9.032;2023-07-13T00:09:02;19.10;63.50
37322;DHT22;23697;48.684;9.032;2023-07-13T00:11:36;19.10;63.50
37322;DHT22;23697;48.684;9.032;2023-07-13T00:14:10;19.10;63.50
37322;DHT22;23697;48.684;9.032;2023-07-13T00:16:49;19.10;64.00
37322;DHT22;23697;48.684;9.032;2023-07-13T00:19:28;19.00;62.90
37322;DHT22;23697;48.684;9.032;2023-07-13T00:21:58;19.00;64.20
37322;DHT22;23697;48.684;9.032;2023-07-13T00:24:25;19.00;64.00
37322;DHT22;23697;48.684;9.032;2023-07-13T00:26:55;18.90;63.50
37322;DHT22;23697;48.684;9.032;2023-07-13T00:29:27;18.90;64.00
37322;DHT22;23697;48.684;9.032;2023-07-13T00:31:54;18.80;64.10
37322;DHT22;23697;48.684;9.032;2023-07-13T00:34:21;18.70;64.20
37322;DHT22;23697;48.684;9.032;2023-07-13T00:36:48;18.70;63.60
37322;DHT22;23697;48.684;9.032;2023-07-13T00:39:15;18.70;64.40
37322;DHT22;23697;48.684;9.032;2023-07-13T00:41:42;18.70;64.40
37322;DHT22;23697;48.684;9.032;2023-07-13T00:44:14;18.60;64.40
37322;DHT22;23697;48.684;9.032;2023-07-13T00:46:43;18.60;65.30
37322;DHT22;23697;48.684;9.032;2023-07-13T00:49:13;18.60;64.60
37322;DHT22;23697;48.684;9.032;2023-07-13T00:51:44;18.60;66.00
37322;DHT22;23697;48.684;9.032;2023-07-13T00:54:13;18.50;64.90
37322;DHT22;23697;48.684;9.032;2023-07-13T00:56:41;18.50;65.00
37322;DHT22;23697;48.684;9.032;2023-07-13T00:59:10;18.40;65.40
37322;DHT22;23697;48.684;9.032;2023-07-13T01:01:38;18.40;64.90
37322;DHT22;23697;48.684;9.032;2023-07-13T01:04:06;18.40;65.60
37322;DHT22;23697;48.684;9.032;2023-07-13T01:06:34;18.40;64.60
37322;DHT22;23697;48.684;9.032;2023-07-13T01:09:01;18.40;65.50
37322;DHT22;23697;48.684;9.032;2023-07-13T01:11:29;18.40;65.30
37322;DHT22;23697;48.684;9.032;2023-07-13T01:13:55;18.40;64.70
37322;DHT22;23697;48.684;9.032;2023-07-13T01:16:25;18.40;65.60
37322;DHT22;23697;48.684;9.032;2023-07-13T01:18:53;18.40;63.90
37322;DHT22;23697;48.684;9.032;2023-07-13T01:21:21;18.40;64.60
37322;DHT22;23697;48.684;9.032;2023-07-13T01:23:48;18.50;64.90
37322;DHT22;23697;48.684;9.032;2023-07-13T01:26:15;18.40;64.20
37322;DHT22;23697;48.684;9.032;2023-07-13T01:28:42;18.40;64.20
37322;DHT22;23697;48.684;9.032;2023-07-13T01:31:09;18.40;63.80
37322;DHT22;23697;48.684;9.032;2023-07-13T01:33:37;18.30;63.70
37322;DHT22;23697;48.684;9.032;2023-07-13T01:36:05;18.30;64.70
37322;DHT22;23697;48.684;9.032;2023-07-13T01:38:34;18.30;64.90
37322;DHT22;23697;48.684;9.032;2023-07-13T01:41:01;18.20;65.20
37322;DHT22;23697;48.684;9.032;2023-07-13T01:43:28;18.10;64.80
37322;DHT22;23697;48.684;9.032;2023-07-13T01:45:55;18.10;65.20
37322;DHT22;23697;48.684;9.032;2023-07-13T01:48:22;18.10;65.20
37322;DHT22;23697;48.684;9.032;2023-07-13T01:50:48;18.10;65.50
37322;DHT22;23697;48.684;9.032;2023-07-13T01:53:15;18.10;65.90
37322;DHT22;23697;48.684;9.032;2023-07-13T01:55:43;18.00;65.00
37322;DHT22;23697;48.684;9.032;2023-07-13T01:58:10;18.00;65.30
37322;DHT22;23697;48.684;9.032;2023-07-13T02:00:37;17.90;66.00
37322;DHT22;23697;48.684;9.032;2023-07-13T02:03:04;17.80;66.70
37322;DHT22;23697;48.684;9.032;2023-07-13T02:05:30;17.70;66.10
37322;DHT22;23697;48.684;9.032;2023-07-13T02:07:57;17.70;66.40
37322;DHT22;23697;48.684;9.032;2023-07-13T02:10:27;17.60;66.10
37322;DHT22;23697;48.684;9.032;2023-07-13T02:12:56;17.60;66.70
37322;DHT22;23697;48.684;9.032;2023-07-13T02:15:22;17.60;66.60
37322;DHT22;23697;48.684;9.032;2023-07-13T02:17:50;17.50;67.00
37322;DHT22;23697;48.684;9.032;2023-07-13T02:20:16;17.50;67.30
37322;DHT22;23697;48.684;9.032;2023-07-13T02:22:43;17.50;67.60
37322;DHT22;23697;48.684;9.032;2023-07-13T02:25:10;17.50;67.80
37322;DHT22;23697;48.684;9.032;2023-07-13T02:27:37;17.40;68.50
37322;DHT22;23697;48.684;9.032;2023-07-13T02:30:06;17.30;69.00
37322;DHT22;23697;48.684;9.032;2023-07-13T02:32:33;17.20;69.30
37322;DHT22;23697;48.684;9.032;2023-07-13T02:35:01;17.10;69.60
37322;DHT22;23697;48.684;9.032;2023-07-13T02:37:28;17.00;69.70
37322;DHT22;23697;48.684;9.032;2023-07-13T02:39:55;17.00;70.00
37322;DHT22;23697;48.684;9.032;2023-07-13T02:42:22;17.00;70.00
37322;DHT22;23697;48.684;9.032;2023-07-13T02:44:48;16.90;70.30
37322;DHT22;23697;48.684;9.032;2023-07-13T02:47:17;16.90;70.20
37322;DHT22;23697;48.684;9.032;2023-07-13T02:49:44;16.80;70.50
37322;DHT22;23697;48.684;9.032;2023-07-13T02:52:11;16.70;70.80
37322;DHT22;23697;48.684;9.032;2023-07-13T02:54:38;16.70;71.20
37322;DHT22;23697;48.684;9.032;2023-07-13T02:57:05;16.60;71.10
37322;DHT22;23697;48.684;9.032;2023-07-13T02:59:32;16.60;71.10
37322;DHT22;23697;48.684;9.032;2023-07-13T03:02:00;16.60;70.80
37322;DHT22;23697;48.684;9.032;2023-07-13T03:04:28;16.60;70.90
37322;DHT22;23697;48.684;9.032;2023-07-13T03:06:55;16.60;70.70
37322;DHT22;23697;48.684;9.032;2023-07-13T03:09:23;16.60;71.00
37322;DHT22;23697;48.684;9.032;2023-07-13T03:11:52;16.60;71.20
37322;DHT22;23697;48.684;9.032;2023-07-13T03:14:19;16.60;71.70
37322;DHT22;23697;48.684;9.032;2023-07-13T03:16:46;16.60;71.40
37322;DHT22;23697;48.684;9.032;2023-07-13T03:19:13;16.70;71.50
37322;DHT22;23697;48.684;9.032;2023-07-13T03:21:41;16.60;72.20
37322;DHT22;23697;48.684;9.032;2023-07-13T03:24:07;16.60;71.20
37322;DHT22;23697;48.684;9.032;2023-07-13T03:26:34;16.60;70.30
37322;DHT22;23697;48.684;9.032;2023-07-13T03:29:01;16.60;71.10
37322;DHT22;23697;48.684;9.032;2023-07-13T03:31:30;16.70;71.00
37322;DHT22;23697;48.684;9.032;2023-07-13T03:33:57;16.70;70.90
37322;DHT22;23697;48.684;9.032;2023-07-13T03:36:25;16.80;71.10
37322;DHT22;23697;48.684;9.032;2023-07-13T03:38:57;16.70;71.20
37322;DHT22;23697;48.684;9.032;2023-07-13T03:41:25;16.80;71.70
37322;DHT22;23697;48.684;9.032;2023-07-13T03:43:52;16.70;71.50
37322;DHT22;23697;48.684;9.032;2023-07-13T03:46:19;16.70;72.10
37322;DHT22;23697;48.684;9.032;2023-07-13T03:48:47;16.70;72.50
37322;DHT22;23697;48.684;9.032;2023-07-13T03:51:16;16.70;72.60
37322;DHT22;23697;48.684;9.032;2023-07-13T03:53:44;16.70;72.70
37322;DHT22;23697;48.684;9.032;2023-07-13T03:56:13;16.70;72.80
37322;DHT22;23697;48.684;9.032;2023-07-13T03:58:43;16.70;72.90
37322;DHT22;23697;48.684;9.032;2023-07-13T04:01:11;16.60;72.80
37322;DHT22;23697;48.684;9.032;2023-07-13T04:03:38;16.60;73.40
37322;DHT22;23697;48.684;9.032;2023-07-13T04:06:08;16.60;73.20
37322;DHT22;23697;48.684;9.032;2023-07-13T04:08:40;16.60;72.50
37322;DHT22;23697;48.684;9.032;2023-07-13T04:11:07;16.60;72.60
37322;DHT22;23697;48.684;9.032;2023-07-13T04:13:35;16.70;72.40
37322;DHT22;23697;48.684;9.032;2023-07-13T04:16:02;16.70;72.40
37322;DHT22;23697;48.684;9.032;2023-07-13T04:18:29;16.70;72.10
37322;DHT22;23697;48.684;9.032;2023-07-13T04:20:56;16.80;72.20
37322;DHT22;23697;48.684;9.032;2023-07-13T04:23:36;16.80;71.60
37322;DHT22;23697;48.684;9.032;2023-07-13T04:26:05;16.70;71.40
37322;DHT22;23697;48.684;9.032;2023-07-13T04:28:33;16.60;71.70
37322;DHT22;23697;48.684;9.032;2023-07-13T04:31:01;16.70;72.30
37322;DHT22;23697;48.684;9.032;2023-07-13T04:33:28;16.60;72.50
37322;DHT22;23697;48.684;9.032;2023-07-13T04:35:56;16.60;73.00
37322;DHT22;23697;48.684;9.032;2023-07-13T04:38:25;16.60;72.50
37322;DHT22;23697;48.684;9.032;2023-07-13T04:40:54;16.50;72.80
37322;DHT22;23697;48.684;9.032;2023-07-13T04:43:21;16.50;73.60
37322;DHT22;23697;48.684;9.032;2023-07-13T04:45:50;16.50;73.80
37322;DHT22;23697;48.684;9.032;2023-07-13T04:48:19;16.50;73.70
37322;DHT22;23697;48.684;9.032;2023-07-13T04:50:46;16.60;73.40
37322;DHT22;23697;48.684;9.032;2023-07-13T04:53:13;16.60;73.30
37322;DHT22;23697;48.684;9.032;2023-07-13T04:55:40;16.50;73.40
37322;DHT22;23697;48.684;9.032;2023-07-13T04:58:07;16.50;72.90
37322;DHT22;23697;48.684;9.032;2023-07-13T05:00:34;16.60;73.10
37322;DHT22;23697;48.684;9.032;2023-07-13T05:03:00;16.60;73.40
37322;DHT22;23697;48.684;9.032;2023-07-13T05:05:32;16.60;73.00
37322;DHT22;23697;48.684;9.032;2023-07-13T05:11:21;16.80;73.50
37322;DHT22;23697;48.684;9.032;2023-07-13T05:13:48;17.00;72.90
37322;DHT22;23697;48.684;9.032;2023-07-13T05:16:15;17.10;72.50
37322;DHT22;23697;48.684;9.032;2023-07-13T05:18:41;17.20;72.30
37322;DHT22;23697;48.684;9.032;2023-07-13T05:21:10;17.40;71.70
37322;DHT22;23697;48.684;9.032;2023-07-13T05:23:38;17.50;71.40
37322;DHT22;23697;48.684;9.032;2023-07-13T05:26:07;17.60;71.80
37322;DHT22;23697;48.684;9.032;2023-07-13T05:28:33;17.60;71.80
37322;DHT22;23697;48.684;9.032;2023-07-13T05:31:00;17.60;71.70
37322;DHT22;23697;48.684;9.032;2023-07-13T05:33:27;17.70;71.40
37322;DHT22;23697;48.684;9.032;2023-07-13T05:35:54;17.70;70.90
37322;DHT22;23697;48.684;9.032;2023-07-13T05:38:22;17.70;70.30
37322;DHT22;23697;48.684;9.032;2023-07-13T05:40:59;17.70;70.10
37322;DHT22;23697;48.684;9.032;2023-07-13T05:43:41;17.80;69.80
37322;DHT22;23697;48.684;9.032;2023-07-13T05:46:18;17.80;69.10
37322;DHT22;23697;48.684;9.032;2023-07-13T05:49:47;17.80;66.40
37322;DHT22;23697;48.684;9.032;2023-07-13T05:52:29;17.80;67.10
37322;DHT22;23697;48.684;9.032;2023-07-13T05:58:00;18.00;69.20
37322;DHT22;23697;48.684;9.032;2023-07-13T06:00:41;18.10;65.80
37322;DHT22;23697;48.684;9.032;2023-07-13T06:03:14;18.10;65.40
37322;DHT22;23697;48.684;9.032;2023-07-13T06:05:44;18.10;66.90
37322;DHT22;23697;48.684;9.032;2023-07-13T06:08:11;18.10;66.70
37322;DHT22;23697;48.684;9.032;2023-07-13T06:10:44;18.30;66.10
37322;DHT22;23697;48.684;9.032;2023-07-13T06:13:12;18.30;64.60
37322;DHT22;23697;48.684;9.032;2023-07-13T06:15:42;18.40;65.50
37322;DHT22;23697;48.684;9.032;2023-07-13T06:18:08;18.30;62.60
37322;DHT22;23697;48.684;9.032;2023-07-13T06:20:35;18.40;63.70
37322;DHT22;23697;48.684;9.032;2023-07-13T06:23:02;18.50;64.50
37322;DHT22;23697;48.684;9.032;2023-07-13T06:25:29;18.60;65.40
37322;DHT22;23697;48.684;9.032;2023-07-13T06:27:56;18.70;64.60
37322;DHT22;23697;48.684;9.032;2023-07-13T06:30:24;18.90;64.30
37322;DHT22;23697;48.684;9.032;2023-07-13T06:32:51;18.90;61.00
37322;DHT22;23697;48.684;9.032;2023-07-13T06:35:18;19.10;60.50
37322;DHT22;23697;48.684;9.032;2023-07-13T06:37:44;19.10;62.10
37322;DHT22;23697;48.684;9.032;2023-07-13T06:40:12;19.20;60.30
37322;DHT22;23697;48.684;9.032;2023-07-13T06:42:39;19.20;58.40
37322;DHT22;23697;48.684;9.032;2023-07-13T06:45:06;19.20;61.10
37322;DHT22;23697;48.684;9.032;2023-07-13T06:47:35;19.40;61.30
37322;DHT22;23697;48.684;9.032;2023-07-13T06:50:01;19.50;60.30
37322;DHT22;23697;48.684;9.032;2023-07-13T06:52:28;19.60;59.40
37322;DHT22;23697;48.684;9.032;2023-07-13T06:54:55;19.80;60.00
37322;DHT22;23697;48.684;9.032;2023-07-13T06:57:22;20.00;59.40
37322;DHT22;23697;48.684;9.032;2023-07-13T06:59:49;20.00;56.60
37322;DHT22;23697;48.684;9.032;2023-07-13T07:02:15;20.00;58.20
37322;DHT22;23697;48.684;9.032;2023-07-13T07:04:44;20.10;57.30
37322;DHT22;23697;48.684;9.032;2023-07-13T07:07:10;20.20;56.00
37322;DHT22;23697;48.684;9.032;2023-07-13T07:09:37;20.40;56.50
37322;DHT22;23697;48.684;9.032;2023-07-13T07:12:04;20.60;55.60
37322;DHT22;23697;48.684;9.032;2023-07-13T07:14:31;20.60;55.10
37322;DHT22;23697;48.684;9.032;2023-07-13T07:16:59;20.70;52.40
37322;DHT22;23697;48.684;9.032;2023-07-13T07:19:29;20.70;54.20
37322;DHT22;23697;48.684;9.032;2023-07-13T07:21:57;20.80;53.40
37322;DHT22;23697;48.684;9.032;2023-07-13T07:24:24;20.90;53.20
37322;DHT22;23697;48.684;9.032;2023-07-13T07:26:51;21.10;54.10
37322;DHT22;23697;48.684;9.032;2023-07-13T07:29:18;21.20;52.50
37322;DHT22;23697;48.684;9.032;2023-07-13T07:31:44;21.10;51.40
37322;DHT22;23697;48.684;9.032;2023-07-13T07:34:11;21.40;52.20
37322;DHT22;23697;48.684;9.032;2023-07-13T07:36:38;21.60;50.30
37322;DHT22;23697;48.684;9.032;2023-07-13T07:39:06;21.80;50.20
37322;DHT22;23697;48.684;9.032;2023-07-13T07:41:33;22.00;49.10
37322;DHT22;23697;48.684;9.032;2023-07-13T07:44:00;22.00;49.60
37322;DHT22;23697;48.684;9.032;2023-07-13T07:46:26;21.90;48.60
37322;DHT22;23697;48.684;9.032;2023-07-13T07:48:53;21.80;45.60
37322;DHT22;23697;48.684;9.032;2023-07-13T07:51:20;22.10;48.30
37322;DHT22;23697;48.684;9.032;2023-07-13T07:53:47;22.40;47.50
37322;DHT22;23697;48.684;9.032;2023-07-13T07:56:15;22.10;47.20
37322;DHT22;23697;48.684;9.032;2023-07-13T07:58:42;22.20;45.30
37322;DHT22;23697;48.684;9.032;2023-07-13T08:01:10;22.60;43.70
37322;DHT22;23697;48.684;9.032;2023-07-13T08:03:36;22.70;45.10
37322;DHT22;23697;48.684;9.032;2023-07-13T08:06:03;22.80;44.70
37322;DHT22;23697;48.684;9.032;2023-07-13T08:08:30;23.10;43.60
37322;DHT22;23697;48.684;9.032;2023-07-13T08:10:57;23.20;45.30
37322;DHT22;23697;48.684;9.032;2023-07-13T08:13:25;23.30;42.20
37322;DHT22;23697;48.684;9.032;2023-07-13T08:15:52;23.40;43.00
37322;DHT22;23697;48.684;9.032;2023-07-13T08:18:18;23.50;43.40
37322;DHT22;23697;48.684;9.032;2023-07-13T08:20:45;23.80;42.90
37322;DHT22;23697;48.684;9.032;2023-07-13T08:26:25;24.00;42.60
37322;DHT22;23697;48.684;9.032;2023-07-13T08:28:53;23.80;42.70
37322;DHT22;23697;48.684;9.032;2023-07-13T08:31:19;24.00;41.30
37322;DHT22;23697;48.684;9.032;2023-07-13T08:33:46;24.10;40.90
37322;DHT22;23697;48.684;9.032;2023-07-13T08:36:13;24.10;40.80
37322;DHT22;23697;48.684;9.032;2023-07-13T08:38:40;24.10;41.90
37322;DHT22;23697;48.684;9.032;2023-07-13T08:41:12;24.10;39.50
37322;DHT22;23697;48.684;9.032;2023-07-13T08:43:39;24.30;39.70
37322;DHT22;23697;48.684;9.032;2023-07-13T08:46:13;24.00;40.30
37322;DHT22;23697;48.684;9.032;2023-07-13T08:48:44;23.60;41.30
37322;DHT22;23697;48.684;9.032;2023-07-13T08:51:22;23.40;42.20
37322;DHT22;23697;48.684;9.032;2023-07-13T08:53:54;23.50;42.70
37322;DHT22;23697;48.684;9.032;2023-07-13T08:56:24;23.90;42.60
37322;DHT22;23697;48.684;9.032;2023-07-13T08:58:54;24.40;41.90
37322;DHT22;23697;48.684;9.032;2023-07-13T09:01:30;24.30;40.90
37322;DHT22;23697;48.684;9.032;2023-07-13T09:04:04;24.70;42.30
37322;DHT22;23697;48.684;9.032;2023-07-13T09:06:40;24.60;38.80
37322;DHT22;23697;48.684;9.032;2023-07-13T09:09:16;24.90;39.80
37322;DHT22;23697;48.684;9.032;2023-07-13T09:12:15;25.60;39.30
37322;DHT22;23697;48.684;9.032;2023-07-13T09:14:45;25.70;38.30
37322;DHT22;23697;48.684;9.032;2023-07-13T09:17:18;26.10;39.50
37322;DHT22;23697;48.684;9.032;2023-07-13T09:19:49;25.30;37.30
37322;DHT22;23697;48.684;9.032;2023-07-13T09:22:19;24.90;40.20
37322;DHT22;23697;48.684;9.032;2023-07-13T09:24:54;25.40;39.40
37322;DHT22;23697;48.684;9.032;2023-07-13T09:27:24;26.00;40.40
37322;DHT22;23697;48.684;9.032;2023-07-13T09:30:01;26.00;36.50
37322;DHT22;23697;48.684;9.032;2023-07-13T09:32:31;25.60;36.20
37322;DHT22;23697;48.684;9.032;2023-07-13T09:34:58;26.10;38.90
37322;DHT22;23697;48.684;9.032;2023-07-13T09:37:30;26.40;38.10
37322;DHT22;23697;48.684;9.032;2023-07-13T09:39:59;26.10;38.60
37322;DHT22;23697;48.684;9.032;2023-07-13T09:42:30;25.00;38.80
37322;DHT22;23697;48.684;9.032;2023-07-13T09:44:59;24.90;39.80
37322;DHT22;23697;48.684;9.032;2023-07-13T09:47:30;24.90;39.70
37322;DHT22;23697;48.684;9.032;2023-07-13T09:49:59;24.60;40.10
37322;DHT22;23697;48.684;9.032;2023-07-13T09:52:27;24.20;40.20
37322;DHT22;23697;48.684;9.032;2023-07-13T09:54:55;24.40;39.70
37322;DHT22;23697;48.684;9.032;2023-07-13T09:57:26;24.40;39.70
37322;DHT22;23697;48.684;9.032;2023-07-13T09:59:54;24.50;40.60
37322;DHT22;23697;48.684;9.032;2023-07-13T10:02:27;24.70;39.20
37322;DHT22;23697;48.684;9.032;2023-07-13T10:05:00;24.50;39.60
37322;DHT22;23697;48.684;9.032;2023-07-13T10:07:29;24.60;41.60
37322;DHT22;23697;48.684;9.032;2023-07-13T10:09:57;24.10;42.10
37322;DHT22;23697;48.684;9.032;2023-07-13T10:12:27;24.20;41.20
37322;DHT22;23697;48.684;9.032;2023-07-13T10:14:57;24.50;42.50
37322;DHT22;23697;48.684;9.032;2023-07-13T10:20:29;24.90;41.30
37322;DHT22;23697;48.684;9.032;2023-07-13T10:23:00;25.40;39.00
37322;DHT22;23697;48.684;9.032;2023-07-13T10:25:31;25.80;38.40
37322;DHT22;23697;48.684;9.032;2023-07-13T10:28:04;26.20;40.10
37322;DHT22;23697;48.684;9.032;2023-07-13T10:30:35;26.60;38.40
37322;DHT22;23697;48.684;9.032;2023-07-13T10:33:17;26.70;37.60
37322;DHT22;23697;48.684;9.032;2023-07-13T10:36:16;26.70;36.40
37322;DHT22;23697;48.684;9.032;2023-07-13T10:38:45;26.50;36.80
37322;DHT22;23697;48.684;9.032;2023-07-13T10:41:17;26.40;36.20
37322;DHT22;23697;48.684;9.032;2023-07-13T10:43:47;26.20;38.10
37322;DHT22;23697;48.684;9.032;2023-07-13T10:46:24;26.10;37.30
37322;DHT22;23697;48.684;9.032;2023-07-13T10:48:56;26.20;38.00
37322;DHT22;23697;48.684;9.032;2023-07-13T10:51:26;26.30;38.20
37322;DHT22;23697;48.684;9.032;2023-07-13T10:54:16;26.40;38.60
37322;DHT22;23697;48.684;9.032;2023-07-13T10:56:43;26.60;35.80
37322;DHT22;23697;48.684;9.032;2023-07-13T10:59:14;27.10;38.10
37322;DHT22;23697;48.684;9.032;2023-07-13T11:01:50;27.10;34.80
37322;DHT22;23697;48.684;9.032;2023-07-13T11:04:19;27.00;34.20
37322;DHT22;23697;48.684;9.032;2023-07-13T11:06:50;27.10;35.50
37322;DHT22;23697;48.684;9.032;2023-07-13T11:09:33;26.80;35.70
37322;DHT22;23697;48.684;9.032;2023-07-13T11:12:06;26.50;37.40
37322;DHT22;23697;48.684;9.032;2023-07-13T11:14:36;26.10;38.10
37322;DHT22;23697;48.684;9.032;2023-07-13T11:17:36;25.70;37.90
37322;DHT22;23697;48.684;9.032;2023-07-13T11:20:19;25.20;38.00
37322;DHT22;23697;48.684;9.032;2023-07-13T11:22:50;25.10;40.00
37322;DHT22;23697;48.684;9.032;2023-07-13T11:25:25;25.20;39.40
37322;DHT22;23697;48.684;9.032;2023-07-13T11:28:05;24.90;38.50
37322;DHT22;23697;48.684;9.032;2023-07-13T11:30:36;25.00;39.20
37322;DHT22;23697;48.684;9.032;2023-07-13T11:33:21;25.50;38.30
37322;DHT22;23697;48.684;9.032;2023-07-13T11:35:58;25.80;40.20
37322;DHT22;23697;48.684;9.032;2023-07-13T11:38:32;25.50;38.50
37322;DHT22;23697;48.684;9.032;2023-07-13T11:41:04;25.00;37.70
37322;DHT22;23697;48.684;9.032;2023-07-13T11:43:31;24.70;38.60
37322;DHT22;23697;48.684;9.032;2023-07-13T11:46:12;25.60;39.40
37322;DHT22;23697;48.684;9.032;2023-07-13T11:48:39;25.70;36.20
37322;DHT22;23697;48.684;9.032;2023-07-13T11:51:07;26.10;34.90
37322;DHT22;23697;48.684;9.032;2023-07-13T11:53:46;26.10;36.00
37322;DHT22;23697;48.684;9.032;2023-07-13T11:56:13;25.60;34.30
37322;DHT22;23697;48.684;9.032;2023-07-13T11:58:41;25.30;35.80
37322;DHT22;23697;48.684;9.032;2023-07-13T12:01:16;25.30;36.50
37322;DHT22;23697;48.684;9.032;2023-07-13T12:03:43;25.20;39.20
37322;DHT22;23697;48.684;9.032;2023-07-13T12:06:23;25.10;38.30
37322;DHT22;23697;48.684;9.032;2023-07-13T12:08:56;25.60;38.00
37322;DHT22;23697;48.684;9.032;2023-07-13T12:11:25;25.60;36.20
37322;DHT22;23697;48.684;9.032;2023-07-13T12:13:52;25.30;37.00
37322;DHT22;23697;48.684;9.032;2023-07-13T12:16:28;25.70;36.70
37322;DHT22;23697;48.684;9.032;2023-07-13T12:18:56;26.20;38.60
37322;DHT22;23697;48.684;9.032;2023-07-13T12:21:30;27.10;39.60
37322;DHT22;23697;48.684;9.032;2023-07-13T12:23:59;27.20;35.40
37322;DHT22;23697;48.684;9.032;2023-07-13T12:26:28;26.70;35.80
37322;DHT22;23697;48.684;9.032;2023-07-13T12:28:56;26.80;36.20
37322;DHT22;23697;48.684;9.032;2023-07-13T12:31:26;27.30;34.10
37322;DHT22;23697;48.684;9.032;2023-07-13T12:33:57;28.00;36.50
37322;DHT22;23697;48.684;9.032;2023-07-13T12:36:24;28.30;33.10
37322;DHT22;23697;48.684;9.032;2023-07-13T12:38:51;28.50;33.20
37322;DHT22;23697;48.684;9.032;2023-07-13T12:41:20;28.50;33.30
37322;DHT22;23697;48.684;9.032;2023-07-13T12:43:48;28.40;33.30
37322;DHT22;23697;48.684;9.032;2023-07-13T12:46:18;28.60;33.10
37322;DHT22;23697;48.684;9.032;2023-07-13T12:48:48;27.80;32.50
37322;DHT22;23697;48.684;9.032;2023-07-13T12:51:16;26.90;34.50
37322;DHT22;23697;48.684;9.032;2023-07-13T12:53:48;26.90;35.10
37322;DHT22;23697;48.684;9.032;2023-07-13T12:56:21;27.20;35.40
37322;DHT22;23697;48.684;9.032;2023-07-13T12:58:50;27.60;33.50
37322;DHT22;23697;48.684;9.032;2023-07-13T13:01:21;27.30;35.50
37322;DHT22;23697;48.684;9.032;2023-07-13T13:03:50;27.20;33.20
37322;DHT22;23697;48.684;9.032;2023-07-13T13:06:23;27.10;33.00
37322;DHT22;23697;48.684;9.032;2023-07-13T13:08:53;26.80;34.90
37322;DHT22;23697;48.684;9.032;2023-07-13T13:11:22;26.40;35.10
37322;DHT22;23697;48.684;9.032;2023-07-13T13:13:50;25.90;37.10
37322;DHT22;23697;48.684;9.032;2023-07-13T13:16:21;25.80;37.00
37322;DHT22;23697;48.684;9.032;2023-07-13T13:18:48;26.30;35.80
37322;DHT22;23697;48.684;9.032;2023-07-13T13:21:17;26.70;37.10
37322;DHT22;23697;48.684;9.032;2023-07-13T13:23:44;26.70;34.10
37322;DHT22;23697;48.684;9.032;2023-07-13T13:26:12;26.80;34.50
37322;DHT22;23697;48.684;9.032;2023-07-13T13:28:42;26.30;32.90
37322;DHT22;23697;48.684;9.032;2023-07-13T13:31:12;26.10;33.40
37322;DHT22;23697;48.684;9.032;2023-07-13T13:33:39;26.20;36.30
37322;DHT22;23697;48.684;9.032;2023-07-13T13:36:13;26.30;35.10
37322;DHT22;23697;48.684;9.032;2023-07-13T13:38:41;26.90;34.60
37322;DHT22;23697;48.684;9.032;2023-07-13T13:41:09;27.10;34.20
37322;DHT22;23697;48.684;9.032;2023-07-13T13:43:36;26.80;33.90
37322;DHT22;23697;48.684;9.032;2023-07-13T13:46:13;26.60;34.10
37322;DHT22;23697;48.684;9.032;2023-07-13T13:48:41;27.40;34.20
37322;DHT22;23697;48.684;9.032;2023-07-13T13:51:13;27.60;32.00
37322;DHT22;23697;48.684;9.032;2023-07-13T13:53:41;28.00;30.60
37322;DHT22;23697;48.684;9.032;2023-07-13T13:56:08;28.30;30.30
37322;DHT22;23697;48.684;9.032;2023-07-13T13:58:35;28.30;30.40
37322;DHT22;23697;48.684;9.032;2023-07-13T14:01:04;28.10;33.10
37322;DHT22;23697;48.684;9.032;2023-07-13T14:03:37;28.40;29.60
37322;DHT22;23697;48.684;9.032;2023-07-13T14:06:04;28.60;30.10
37322;DHT22;23697;48.684;9.032;2023-07-13T14:08:34;28.70;30.50
37322;DHT22;23697;48.684;9.032;2023-07-13T14:11:01;28.90;31.10
37322;DHT22;23697;48.684;9.032;2023-07-13T14:13:31;28.80;28.10
37322;DHT22;23697;48.684;9.032;2023-07-13T14:16:01;28.80;31.10
37322;DHT22;23697;48.684;9.032;2023-07-13T14:18:28;28.10;29.80
37322;DHT22;23697;48.684;9.032;2023-07-13T14:20:59;27.60;30.10
37322;DHT22;23697;48.684;9.032;2023-07-13T14:23:26;27.60;33.80
37322;DHT22;23697;48.684;9.032;2023-07-13T14:25:53;27.90;32.80
37322;DHT22;23697;48.684;9.032;2023-07-13T14:28:22;26.80;31.40
37322;DHT22;23697;48.684;9.032;2023-07-13T14:30:49;26.50;35.30
37322;DHT22;23697;48.684;9.032;2023-07-13T14:33:17;26.10;35.50
37322;DHT22;23697;48.684;9.032;2023-07-13T14:35:44;26.10;35.50
37322;DHT22;23697;48.684;9.032;2023-07-13T14:38:16;26.10;34.70
37322;DHT22;23697;48.684;9.032;2023-07-13T14:40:45;26.20;35.30
37322;DHT22;23697;48.684;9.032;2023-07-13T14:43:14;26.70;34.10
37322;DHT22;23697;48.684;9.032;2023-07-13T14:45:43;26.80;33.30
37322;DHT22;23697;48.684;9.032;2023-07-13T14:48:14;26.20;33.60
37322;DHT22;23697;48.684;9.032;2023-07-13T14:50:42;25.80;34.40
37322;DHT22;23697;48.684;9.032;2023-07-13T14:53:12;25.90;36.00
37322;DHT22;23697;48.684;9.032;2023-07-13T14:55:39;26.30;35.50
37322;DHT22;23697;48.684;9.032;2023-07-13T14:58:08;26.90;37.50
37322;DHT22;23697;48.684;9.032;2023-07-13T15:00:35;27.30;34.20
37322;DHT22;23697;48.684;9.032;2023-07-13T15:03:03;27.30;34.20
37322;DHT22;23697;48.684;9.032;2023-07-13T15:05:34;26.90;34.20
37322;DHT22;23697;48.684;9.032;2023-07-13T15:08:02;26.90;34.50
37322;DHT22;23697;48.684;9.032;2023-07-13T15:10:32;27.10;34.30
37322;DHT22;23697;48.684;9.032;2023-07-13T15:13:15;27.30;35.50
37322;DHT22;23697;48.684;9.032;2023-07-13T15:15:45;27.50;34.90
37322;DHT22;23697;48.684;9.032;2023-07-13T15:18:14;27.10;34.10
37322;DHT22;23697;48.684;9.032;2023-07-13T15:20:43;26.50;36.80
37322;DHT22;23697;48.684;9.032;2023-07-13T15:23:12;26.90;35.60
37322;DHT22;23697;48.684;9.032;2023-07-13T15:25:41;27.30;36.00
37322;DHT22;23697;48.684;9.032;2023-07-13T15:28:09;27.70;33.10
37322;DHT22;23697;48.684;9.032;2023-07-13T15:30:40;27.40;34.80
37322;DHT22;23697;48.684;9.032;2023-07-13T15:33:12;27.50;34.80
37322;DHT22;23697;48.684;9.032;2023-07-13T15:35:40;27.20;34.30
37322;DHT22;23697;48.684;9.032;2023-07-13T15:38:13;27.50;34.30
37322;DHT22;23697;48.684;9.032;2023-07-13T15:40:42;27.80;33.40
37322;DHT22;23697;48.684;9.032;2023-07-13T15:43:11;27.80;34.10
37322;DHT22;23697;48.684;9.032;2023-07-13T15:45:38;27.70;34.50
37322;DHT22;23697;48.684;9.032;2023-07-13T15:48:15;27.80;34.60
37322;DHT22;23697;48.684;9.032;2023-07-13T15:50:44;27.50;34.40
37322;DHT22;23697;48.684;9.032;2023-07-13T15:53:14;27.60;33.50
37322;DHT22;23697;48.684;9.032;2023-07-13T15:55:44;27.60;34.70
37322;DHT22;23697;48.684;9.032;2023-07-13T15:58:12;27.30;33.40